createdAt,value
2022-11-03T07:56:26.400Z,9.74
2022-11-03T07:59:01.481Z,9.62
2022-11-03T08:01:36.613Z,9.72
2022-11-03T08:04:13.452Z,9.68
2022-11-03T08:06:41.406Z,9.75
2022-11-03T08:09:10.119Z,9.82
2022-11-03T08:11:38.774Z,9.91
2022-11-03T08:14:07.159Z,9.87
2022-11-03T08:16:36.201Z,9.89
2022-11-03T08:19:05.589Z,9.89
2022-11-03T08:21:35.634Z,9.94
2022-11-03T08:33:03.573Z,10.15
2022-11-03T08:35:33.982Z,10.20
2022-11-03T08:38:01.871Z,10.21
2022-11-03T08:40:29.817Z,10.34
2022-11-03T08:42:58.206Z,10.50
2022-11-03T08:45:25.881Z,10.58
2022-11-03T08:47:56.657Z,10.75
2022-11-03T08:50:24.797Z,10.98
2022-11-03T08:52:52.740Z,11.24
2022-11-03T08:55:21.805Z,11.26
2022-11-03T08:57:49.763Z,11.36
2022-11-03T09:00:19.051Z,11.43
2022-11-03T09:02:47.143Z,11.54
2022-11-03T09:05:15.363Z,11.43
2022-11-03T09:10:35.718Z,11.58
2022-11-03T09:13:07.487Z,11.54
2022-11-03T09:15:36.185Z,11.70
2022-11-03T09:18:04.408Z,11.53
2022-11-03T09:20:32.900Z,11.58
2022-11-03T09:23:01.906Z,11.63
2022-11-03T09:25:30.060Z,11.82
2022-11-03T09:27:58.747Z,12.02
2022-11-03T09:30:26.648Z,12.38
2022-11-03T09:32:54.519Z,12.46
2022-11-03T09:35:28.215Z,12.56
2022-11-03T09:37:56.368Z,12.68
2022-11-03T09:40:25.756Z,12.76
2022-11-03T09:42:54.945Z,12.59
2022-11-03T09:45:23.543Z,12.52
2022-11-03T09:47:52.924Z,12.42
2022-11-03T09:50:21.754Z,12.28
2022-11-03T09:52:55.699Z,12.25
2022-11-03T09:55:28.059Z,12.24
2022-11-03T09:58:01.238Z,12.29
2022-11-03T10:00:29.355Z,12.14
2022-11-03T10:02:58.169Z,12.23
2022-11-03T10:05:29.121Z,12.14
2022-11-03T10:08:04.321Z,12.21
2022-11-03T10:10:37.469Z,12.15
2022-11-03T10:13:16.669Z,12.10
2022-11-03T10:15:48.792Z,12.27
2022-11-03T10:18:19.226Z,12.23
2022-11-03T10:20:47.253Z,12.28
2022-11-03T10:23:16.252Z,12.17
2022-11-03T10:25:47.238Z,12.26
2022-11-03T10:28:18.603Z,12.34
2022-11-03T10:31:17.542Z,12.44
2022-11-03T10:33:54.915Z,12.44
2022-11-03T10:36:26.650Z,12.54
2022-11-03T10:38:57.883Z,12.54
2022-11-03T10:41:33.439Z,12.65
2022-11-03T10:44:13.511Z,12.64
2022-11-03T10:46:50.796Z,12.55
2022-11-03T10:49:21.937Z,12.68
2022-11-03T11:25:09.905Z,13.31
2022-11-03T11:27:38.526Z,13.41
2022-11-03T11:30:15.338Z,13.52
2022-11-03T11:32:43.618Z,13.53
2022-11-03T11:35:25.483Z,13.42
2022-11-03T11:37:55.155Z,13.57
2022-11-03T11:40:30.285Z,13.67
2022-11-03T11:43:05.030Z,13.68
2022-11-03T11:46:10.336Z,13.66
2022-11-03T11:48:38.505Z,13.72
2022-11-03T11:51:13.236Z,13.70
2022-11-03T11:53:48.157Z,13.70
2022-11-03T11:56:19.873Z,13.77
2022-11-03T11:58:55.386Z,13.93
2022-11-03T12:01:38.013Z,13.83
2022-11-03T12:06:46.548Z,13.84
2022-11-03T12:09:25.162Z,13.89
2022-11-03T12:11:58.404Z,13.87
2022-11-03T12:14:41.209Z,13.86
2022-11-03T12:17:17.843Z,13.85
2022-11-03T12:19:49.621Z,13.75
2022-11-03T12:22:29.756Z,13.70
2022-11-03T12:25:02.467Z,13.79
2022-11-03T12:27:30.899Z,13.72
2022-11-03T12:30:05.682Z,13.76
2022-11-03T12:32:35.359Z,13.65
2022-11-03T12:35:10.687Z,13.75
2022-11-03T12:37:39.687Z,13.69
2022-11-03T12:40:08.604Z,13.58
2022-11-03T12:42:36.672Z,13.68
2022-11-03T12:45:05.174Z,13.64
2022-11-03T12:47:33.101Z,13.64
2022-11-03T12:50:01.189Z,13.61
2022-11-03T12:52:29.315Z,13.52
2022-11-03T12:54:57.814Z,13.48
2022-11-03T12:57:26.606Z,13.48
2022-11-03T12:59:54.843Z,13.39
2022-11-03T13:02:24.212Z,13.45
2022-11-03T13:04:53.030Z,13.41
2022-11-03T13:07:26.795Z,13.30
2022-11-03T13:09:58.287Z,13.45
2022-11-03T13:12:32.381Z,13.56
2022-11-03T13:15:06.294Z,13.52
2022-11-03T13:17:59.137Z,13.62
2022-11-03T13:20:25.166Z,13.72
2022-11-03T13:22:53.078Z,13.80
2022-11-03T13:25:21.388Z,13.83
2022-11-03T13:27:54.042Z,13.77
2022-11-03T13:30:23.127Z,13.92
2022-11-03T13:32:51.472Z,13.90
2022-11-03T13:35:20.038Z,13.82
2022-11-03T13:37:48.174Z,13.91
2022-11-03T13:40:50.278Z,13.79
2022-11-03T13:43:07.564Z,13.85
2022-11-03T13:45:36.272Z,13.78
2022-11-03T13:51:19.760Z,13.68
2022-11-03T13:59:27.549Z,13.78
2022-11-03T14:04:44.764Z,13.61
2022-11-03T14:07:12.826Z,13.68
2022-11-03T14:09:43.845Z,13.66
2022-11-03T14:12:30.344Z,13.57
2022-11-03T14:15:02.890Z,13.61
2022-11-03T14:17:30.805Z,13.63
2022-11-03T14:20:02.852Z,13.54
2022-11-03T14:22:32.568Z,13.50
2022-11-03T14:25:01.397Z,13.46
2022-11-03T14:27:29.497Z,13.44
2022-11-03T14:29:57.542Z,13.40
2022-11-03T14:32:26.382Z,13.54
2022-11-03T14:34:55.467Z,13.56
2022-11-03T14:37:25.850Z,13.58
2022-11-03T14:39:54.649Z,13.47
2022-11-03T14:42:22.889Z,13.38
2022-11-03T14:44:50.753Z,13.33
2022-11-03T14:47:22.014Z,13.37
2022-11-03T14:49:51.369Z,13.34
2022-11-03T14:52:19.694Z,13.21
2022-11-03T14:54:47.586Z,13.24
2022-11-03T14:57:20.929Z,13.13
2022-11-03T14:59:53.536Z,13.00
2022-11-03T15:02:21.742Z,13.00
2022-11-03T15:04:49.781Z,13.06
2022-11-03T15:07:17.796Z,12.92
2022-11-03T15:09:45.724Z,12.88
2022-11-03T15:12:13.495Z,12.87
2022-11-03T15:14:42.305Z,12.72
2022-11-03T15:17:11.649Z,12.78
2022-11-03T15:19:39.717Z,12.79
2022-11-03T15:22:07.751Z,12.69
2022-11-03T15:27:37.285Z,12.61
2022-11-03T15:30:06.008Z,12.61
2022-11-03T15:32:36.517Z,12.70
2022-11-03T15:35:08.080Z,12.64
2022-11-03T15:37:37.834Z,12.67
2022-11-03T15:40:06.371Z,12.70
2022-11-03T16:00:13.474Z,12.57
2022-11-03T16:02:45.060Z,12.42
2022-11-03T16:05:14.200Z,12.45
2022-11-03T16:07:44.643Z,12.50
2022-11-03T16:10:16.728Z,12.40
2022-11-03T16:21:24.062Z,12.35
2022-11-03T16:23:54.337Z,12.28
2022-11-03T16:26:24.133Z,12.33
2022-11-03T16:28:53.223Z,12.19
2022-11-03T16:31:23.386Z,12.18
2022-11-03T16:33:52.865Z,12.21
2022-11-03T16:39:07.653Z,12.21
2022-11-03T16:41:42.644Z,12.20
2022-11-03T16:44:14.324Z,12.14
2022-11-03T16:55:23.982Z,11.95
2022-11-03T16:57:52.685Z,12.00
2022-11-03T17:00:22.267Z,11.97
2022-11-03T17:02:49.976Z,11.99
2022-11-03T17:05:21.089Z,11.91
2022-11-03T17:07:54.043Z,12.00
2022-11-03T17:10:26.887Z,11.90
2022-11-03T17:12:56.550Z,11.90
2022-11-03T17:15:26.393Z,11.83
2022-11-03T17:17:55.532Z,11.83
2022-11-03T17:20:25.086Z,11.82
2022-11-03T17:22:53.084Z,11.84
2022-11-03T17:25:21.030Z,11.81
2022-11-03T17:28:03.180Z,11.64
2022-11-03T17:30:38.231Z,11.70
2022-11-03T17:33:15.015Z,11.73
2022-11-03T17:35:46.363Z,11.65
2022-11-03T17:38:17.472Z,11.64
2022-11-03T17:40:48.243Z,11.64
2022-11-03T17:43:23.702Z,11.59
2022-11-03T17:45:52.596Z,11.60
2022-11-03T17:48:23.576Z,11.54
2022-11-03T17:50:54.085Z,11.57
2022-11-03T17:53:31.238Z,11.55
2022-11-03T17:56:28.327Z,11.48
2022-11-03T17:58:51.602Z,11.47
2022-11-03T18:01:29.064Z,11.46
2022-11-03T18:04:49.683Z,11.49
2022-11-03T18:07:27.037Z,11.39
2022-11-03T18:09:55.881Z,11.47
2022-11-03T18:12:48.556Z,11.46
2022-11-03T18:15:22.137Z,11.47
2022-11-03T18:17:52.182Z,11.44
2022-11-03T18:20:30.459Z,11.47
2022-11-03T18:23:11.899Z,11.42
2022-11-03T18:25:40.071Z,11.39
2022-11-03T18:28:08.765Z,11.47
2022-11-03T18:30:41.836Z,11.45
2022-11-03T18:33:23.924Z,11.50
2022-11-03T18:35:53.754Z,11.50
2022-11-03T18:38:29.396Z,11.50
2022-11-03T18:41:24.191Z,11.48
2022-11-03T18:43:58.255Z,11.47
2022-11-03T18:46:27.455Z,11.46
2022-11-03T18:48:57.371Z,11.42
2022-11-03T18:51:41.327Z,11.40
2022-11-03T18:54:16.926Z,11.39
2022-11-03T18:56:46.415Z,11.43
2022-11-03T18:59:42.044Z,11.47
2022-11-03T19:02:28.452Z,11.43
2022-11-03T19:04:59.538Z,11.45
2022-11-03T19:10:18.626Z,11.43
2022-11-03T19:18:31.466Z,11.33
2022-11-03T19:20:58.621Z,11.33
2022-11-03T19:23:25.853Z,11.26
2022-11-03T19:25:58.388Z,11.24
2022-11-03T19:28:29.717Z,11.23
2022-11-03T19:30:58.212Z,11.22
2022-11-03T19:33:29.564Z,11.14
2022-11-03T19:35:58.385Z,11.16
2022-11-03T19:38:27.441Z,11.24
2022-11-03T19:41:25.692Z,11.23
2022-11-03T19:43:52.882Z,11.20
2022-11-03T19:46:20.208Z,11.13
2022-11-03T19:48:47.945Z,11.20
2022-11-03T19:51:14.938Z,11.26
2022-11-03T19:53:47.129Z,11.11
2022-11-03T19:56:17.206Z,11.18
2022-11-03T19:58:45.619Z,11.17
2022-11-03T20:01:14.766Z,11.19
2022-11-03T20:04:13.446Z,11.21
2022-11-03T20:06:41.161Z,11.12
2022-11-03T20:09:17.358Z,11.08
2022-11-03T20:11:46.031Z,11.14
2022-11-03T20:14:19.295Z,11.07
2022-11-03T20:16:46.680Z,11.05
2022-11-03T20:19:15.683Z,11.02
2022-11-03T20:21:42.723Z,11.12
2022-11-03T20:24:59.675Z,11.12
2022-11-03T20:27:27.189Z,11.11
2022-11-03T20:29:54.619Z,11.03
2022-11-03T20:32:21.855Z,11.02
2022-11-03T20:34:48.849Z,11.01
2022-11-03T20:37:19.115Z,10.96
2022-11-03T20:39:47.298Z,10.95
2022-11-03T20:42:26.201Z,10.91
2022-11-03T20:44:53.465Z,10.87
2022-11-03T20:47:22.336Z,10.90
2022-11-03T20:50:14.292Z,10.83
2022-11-03T20:52:44.762Z,10.88
2022-11-03T20:55:25.713Z,10.87
2022-11-03T20:57:54.187Z,10.86
2022-11-03T21:00:27.206Z,10.89
2022-11-03T21:02:58.575Z,10.88
2022-11-03T21:05:29.202Z,10.85
2022-11-03T21:07:56.972Z,10.78
2022-11-03T21:10:24.211Z,10.73
2022-11-03T21:13:22.659Z,10.71
2022-11-03T21:19:17.829Z,10.72
2022-11-03T21:21:44.819Z,10.61
2022-11-03T21:24:12.654Z,10.61
2022-11-03T21:26:41.210Z,10.56
2022-11-03T21:29:08.157Z,10.61
2022-11-03T21:31:35.284Z,10.54
2022-11-03T21:34:02.183Z,10.49
2022-11-03T21:36:30.146Z,10.59
2022-11-03T21:38:57.126Z,10.56
2022-11-03T21:41:43.541Z,10.51
2022-11-03T21:44:16.941Z,10.57
2022-11-03T21:46:44.777Z,10.51
2022-11-03T21:52:32.140Z,10.55
2022-11-03T21:55:00.423Z,10.51
2022-11-03T21:57:28.482Z,10.57
2022-11-03T22:00:01.110Z,10.62
2022-11-03T22:02:30.121Z,10.52
2022-11-03T22:04:57.790Z,10.49
2022-11-03T22:07:24.978Z,10.59
2022-11-03T22:09:55.381Z,10.57
2022-11-03T22:12:22.331Z,10.60
2022-11-03T22:15:07.881Z,10.63
2022-11-03T22:17:34.909Z,10.71
2022-11-03T22:20:20.189Z,10.71
2022-11-03T22:23:05.742Z,10.71
2022-11-03T22:26:18.786Z,10.68
2022-11-03T22:28:45.663Z,10.80
2022-11-03T22:31:31.080Z,10.85
2022-11-03T22:34:16.490Z,10.83
2022-11-03T22:36:43.345Z,10.81
2022-11-03T22:39:28.723Z,10.79
2022-11-03T22:42:14.083Z,10.68
2022-11-03T22:44:59.475Z,10.83
2022-11-03T22:47:27.408Z,10.84
2022-11-03T22:49:55.693Z,10.78
2022-11-03T22:52:22.929Z,10.78
2022-11-03T22:54:49.706Z,10.80
2022-11-03T22:57:16.977Z,10.90
2022-11-03T22:59:45.717Z,10.88
2022-11-03T23:02:12.651Z,10.89
2022-11-03T23:04:39.647Z,10.93
2022-11-03T23:07:06.981Z,10.93
2022-11-03T23:09:34.801Z,10.94
2022-11-03T23:12:01.765Z,10.96
2022-11-03T23:14:48.665Z,10.93
2022-11-03T23:17:15.671Z,11.01
2022-11-03T23:22:52.730Z,10.96
2022-11-03T23:25:19.839Z,10.85
2022-11-03T23:27:46.796Z,10.96
2022-11-03T23:30:13.916Z,10.92
2022-11-03T23:32:40.981Z,10.99
2022-11-03T23:35:08.587Z,11.00
2022-11-03T23:37:35.542Z,10.96
2022-11-03T23:40:02.549Z,10.97
2022-11-03T23:42:31.815Z,10.96
2022-11-03T23:45:16.986Z,10.95
2022-11-03T23:48:03.587Z,10.88
2022-11-03T23:50:32.097Z,10.84
2022-11-03T23:52:58.898Z,10.82
2022-11-03T23:55:25.902Z,10.79
2022-11-03T23:58:17.147Z,10.77
